Time;durP1;ratioP1;P1;durP2;ratioP2;P2;SDS_P1;SDS_P2;PMS_P1;PMS_P2;Temp;Humidity;BMP_temperature;BMP_pressure;BME280_temperature;BME280_humidity;BME280_pressure;Samples;Min_cycle;Max_cycle;Signal;HPM_P1;HPM_P2
2021/06/20 00:01:14;;;;;;;9.90;7.97;;;;;;;23.89;60.39;100415.00;127515;1095;114472;-81
2021/06/20 00:03:41;;;;;;;10.68;8.85;;;;;;;23.81;60.85;100412.02;127697;1093;100789;-78
2021/06/20 00:06:31;;;;;;;10.13;9.05;;;;;;;23.77;60.68;100416.83;127934;1092;101180;-80
2021/06/20 00:09:03;;;;;;;12.90;9.93;;;;;;;23.72;61.05;100419.06;127479;1093;115505;-78
2021/06/20 00:11:31;;;;;;;10.67;9.23;;;;;;;23.65;60.90;100415.97;124726;1093;103175;-80
2021/06/20 00:13:59;;;;;;;10.55;9.55;;;;;;;23.61;61.13;100413.65;124920;1092;116742;-79
2021/06/20 00:16:26;;;;;;;10.87;9.77;;;;;;;23.59;61.59;100412.89;124908;1092;103012;-79
2021/06/20 00:18:54;;;;;;;11.90;9.60;;;;;;;23.50;61.45;100407.22;124937;1093;103170;-80
2021/06/20 00:21:21;;;;;;;11.17;10.17;;;;;;;23.50;61.78;100417.23;124652;1093;115188;-79
2021/06/20 00:23:49;;;;;;;11.65;10.58;;;;;;;23.48;62.04;100413.77;124829;1093;103111;-80
2021/06/20 00:26:17;;;;;;;11.00;9.90;;;;;;;23.47;62.25;100412.91;124609;1093;114743;-80
2021/06/20 00:28:45;;;;;;;15.87;11.27;;;;;;;23.40;62.22;100406.22;124915;1093;102988;-81
2021/06/20 00:31:13;;;;;;;11.50;10.50;;;;;;;23.40;62.48;100403.50;124811;1092;115400;-77
2021/06/20 00:33:41;;;;;;;12.28;11.15;;;;;;;23.37;62.54;100403.76;125006;1093;102994;-78
2021/06/20 00:36:10;;;;;;;11.80;10.70;;;;;;;23.36;62.83;100411.03;124944;1092;103034;-81
2021/06/20 00:38:37;;;;;;;21.23;10.28;;;;;;;23.38;62.54;100414.50;127835;1093;116013;-78
2021/06/20 00:41:05;;;;;;;14.07;10.13;;;;;;;23.40;62.58;100416.23;125087;1092;103075;-79
2021/06/20 00:43:33;;;;;;;11.67;10.00;;;;;;;23.44;62.55;100415.85;124658;1092;114853;-80
2021/06/20 00:46:14;;;;;;;11.37;10.27;;;;;;;23.45;62.51;100411.30;124539;1092;103946;-79
2021/06/20 00:48:42;;;;;;;11.15;9.48;;;;;;;23.45;61.90;100414.88;127949;1092;101375;-80
2021/06/20 00:51:09;;;;;;;11.97;10.77;;;;;;;23.44;62.74;100409.56;127847;1093;116047;-78
2021/06/20 00:53:37;;;;;;;14.70;10.87;;;;;;;23.44;62.38;100412.28;126575;1092;103035;-78
2021/06/20 00:56:04;;;;;;;11.25;9.95;;;;;;;23.42;62.67;100415.13;124389;1092;115535;-79
2021/06/20 00:58:32;;;;;;;11.53;10.40;;;;;;;23.44;62.07;100413.14;124243;1093;102983;-81
2021/06/20 01:01:00;;;;;;;10.67;9.63;;;;;;;23.45;62.44;100414.88;124202;1093;102980;-79
2021/06/20 01:03:27;;;;;;;12.83;11.67;;;;;;;23.32;62.65;100414.98;124643;1093;114382;-79
2021/06/20 01:05:55;;;;;;;12.37;10.20;;;;;;;23.31;62.83;100407.84;124948;1093;102994;-80
2021/06/20 01:08:22;;;;;;;12.80;10.80;;;;;;;23.28;63.31;100404.49;124884;1093;115888;-79
2021/06/20 01:11:03;;;;;;;13.13;11.88;;;;;;;23.18;63.90;100405.23;124799;1093;103163;-79
2021/06/20 01:13:31;;;;;;;13.33;12.03;;;;;;;23.07;64.31;100394.30;124631;1093;115897;-79
2021/06/20 01:15:58;;;;;;;12.23;11.03;;;;;;;22.96;64.90;100403.30;124848;1092;102974;-78
2021/06/20 01:18:26;;;;;;;12.33;11.20;;;;;;;22.87;65.27;100404.90;124686;1093;103472;-80
2021/06/20 01:21:08;;;;;;;14.30;12.90;;;;;;;22.81;65.20;100399.94;124917;1093;116603;-79
2021/06/20 01:23:49;;;;;;;14.13;12.83;;;;;;;22.79;65.69;100395.61;127820;1092;100632;-82
2021/06/20 01:26:17;;;;;;;14.20;11.57;;;;;;;22.76;65.60;100393.99;124864;1093;114313;-80
2021/06/20 01:28:50;;;;;;;11.28;10.18;;;;;;;22.77;65.45;100387.59;125078;1092;103109;-79
2021/06/20 01:31:20;;;;;;;12.80;11.03;;;;;;;22.78;65.51;100385.72;124801;1093;115523;-82
2021/06/20 01:33:47;;;;;;;12.88;11.58;;;;;;;22.74;65.95;100381.52;124590;1093;103057;-83
2021/06/20 01:36:15;;;;;;;12.00;10.80;;;;;;;22.69;65.91;100385.46;124774;1093;103020;-80
2021/06/20 01:38:43;;;;;;;12.28;11.25;;;;;;;22.65;65.89;100378.55;124694;1093;114384;-79
2021/06/20 01:41:11;;;;;;;12.67;11.20;;;;;;;22.67;65.21;100375.70;125092;1092;103103;-82
2021/06/20 01:43:38;;;;;;;13.40;11.80;;;;;;;22.73;65.44;100379.81;124955;1093;115034;-82
2021/06/20 01:46:05;;;;;;;11.90;10.63;;;;;;;22.76;65.46;100379.56;124975;1092;103018;-81
2021/06/20 01:48:33;;;;;;;12.33;11.13;;;;;;;22.67;65.60;100389.28;124967;1093;103441;-81
2021/06/20 01:51:04;;;;;;;12.53;11.23;;;;;;;22.61;65.47;100381.63;124948;1093;115069;-80
2021/06/20 01:53:45;;;;;;;13.47;11.30;;;;;;;22.54;66.07;100379.38;125448;1092;103000;-81
2021/06/20 01:56:12;;;;;;;13.87;11.80;;;;;;;22.49;66.34;100384.29;124705;1093;115014;-80
2021/06/20 01:58:40;;;;;;;12.40;11.28;;;;;;;22.43;66.79;100379.35;124840;1093;103043;-81
2021/06/20 02:01:21;;;;;;;12.53;11.33;;;;;;;22.47;66.58;100385.39;125009;1093;115390;-79
2021/06/20 02:03:49;;;;;;;13.43;12.13;;;;;;;22.41;66.47;100388.59;124738;1093;103091;-82
2021/06/20 02:06:18;;;;;;;14.35;11.80;;;;;;;22.36;66.65;100388.92;124915;1093;103137;-80
2021/06/20 02:08:46;;;;;;;14.63;12.57;;;;;;;22.26;66.85;100388.73;124952;1093;115955;-81
2021/06/20 02:11:13;;;;;;;13.60;12.30;;;;;;;22.23;67.39;100383.52;124685;1093;103005;-79
2021/06/20 02:13:41;;;;;;;13.93;12.73;;;;;;;22.23;67.45;100380.81;124699;1093;114994;-78
2021/06/20 02:16:08;;;;;;;14.13;12.77;;;;;;;22.27;67.12;100376.91;124826;1093;102983;-80
2021/06/20 02:18:36;;;;;;;13.68;12.50;;;;;;;22.23;67.46;100379.95;124880;1092;102959;-80
2021/06/20 02:21:03;;;;;;;14.63;12.20;;;;;;;22.14;67.65;100390.53;124786;1092;114774;-80
2021/06/20 02:23:31;;;;;;;12.25;11.03;;;;;;;22.15;67.87;100383.24;124926;1092;102983;-80
2021/06/20 02:25:58;;;;;;;12.40;11.28;;;;;;;22.14;67.72;100389.64;124805;1093;116001;-80
2021/06/20 02:28:25;;;;;;;12.83;11.33;;;;;;;22.11;68.25;100387.17;124936;1092;103054;-80
2021/06/20 02:30:53;;;;;;;13.35;12.08;;;;;;;22.04;68.18;100397.61;124918;1093;103007;-79
2021/06/20 02:33:21;;;;;;;13.40;12.20;;;;;;;22.02;67.91;100392.31;124841;1092;114946;-79
2021/06/20 02:35:49;;;;;;;13.40;11.97;;;;;;;22.03;68.17;100390.45;124876;1093;103092;-80
2021/06/20 02:38:30;;;;;;;13.03;11.68;;;;;;;22.05;67.79;100402.06;124486;1096;116005;-81
2021/06/20 02:40:58;;;;;;;13.00;11.70;;;;;;;22.04;68.02;100401.18;124929;1092;103015;-80
2021/06/20 02:43:39;;;;;;;13.27;12.10;;;;;;;21.98;68.11;100412.50;124814;1093;115941;-79
2021/06/20 02:46:07;;;;;;;13.53;11.30;;;;;;;22.03;67.90;100413.03;124821;1092;102996;-80
2021/06/20 02:48:34;;;;;;;13.63;12.33;;;;;;;22.02;68.18;100424.00;124585;1092;102983;-78
2021/06/20 02:51:02;;;;;;;12.70;11.50;;;;;;;21.96;68.15;100424.44;124415;1092;114785;-82
2021/06/20 02:53:30;;;;;;;14.00;12.70;;;;;;;22.01;68.08;100419.55;124388;1092;103009;-80
2021/06/20 02:55:58;;;;;;;13.03;11.73;;;;;;;21.99;68.11;100425.09;124589;1093;115343;-80
2021/06/20 02:58:26;;;;;;;13.73;12.43;;;;;;;21.96;68.11;100430.72;124957;1092;102994;-79
2021/06/20 03:00:53;;;;;;;15.20;13.17;;;;;;;21.93;67.75;100424.68;124849;1093;103076;-79
2021/06/20 03:03:20;;;;;;;13.95;11.70;;;;;;;21.94;68.05;100429.09;124814;1092;114666;-79
2021/06/20 03:05:48;;;;;;;13.78;12.48;;;;;;;21.87;68.73;100434.99;124938;1092;103163;-79
2021/06/20 03:08:15;;;;;;;13.33;11.93;;;;;;;21.85;68.46;100422.52;124655;1093;115887;-80
2021/06/20 03:10:42;;;;;;;11.57;10.37;;;;;;;21.88;68.47;100419.58;124980;1093;102976;-79
2021/06/20 03:13:09;;;;;;;13.10;11.90;;;;;;;21.87;68.19;100421.44;124842;1093;115021;-79
2021/06/20 03:15:38;;;;;;;13.88;11.90;;;;;;;21.82;68.96;100420.02;124942;1093;103145;-79
2021/06/20 03:18:06;;;;;;;11.60;10.40;;;;;;;21.79;68.41;100421.14;124927;1092;103143;-80
2021/06/20 03:20:33;;;;;;;12.60;11.50;;;;;;;21.77;68.59;100422.23;124868;1093;115389;-82
2021/06/20 03:23:01;;;;;;;14.30;13.00;;;;;;;21.74;68.86;100427.85;124956;1092;103116;-80
2021/06/20 03:25:28;;;;;;;13.10;11.85;;;;;;;21.72;69.13;100427.97;124851;1092;114869;-80
2021/06/20 03:27:55;;;;;;;12.47;11.17;;;;;;;21.72;68.81;100422.55;124996;1093;103126;-82
2021/06/20 03:30:24;;;;;;;14.00;12.40;;;;;;;21.70;69.12;100429.94;124912;1092;103685;-80
2021/06/20 03:32:51;;;;;;;13.13;11.03;;;;;;;21.70;68.95;100424.52;124552;1093;114752;-78
2021/06/20 03:35:18;;;;;;;12.97;11.67;;;;;;;21.70;69.42;100419.95;124862;1093;103076;-80
2021/06/20 03:37:46;;;;;;;13.33;11.95;;;;;;;21.66;68.96;100422.98;124824;1093;115669;-80
2021/06/20 03:40:15;;;;;;;20.70;12.70;;;;;;;21.66;69.68;100422.98;125081;1092;103132;-79
2021/06/20 03:42:43;;;;;;;17.83;11.85;;;;;;;21.66;69.00;100414.84;124988;1091;103073;-81
2021/06/20 03:45:11;;;;;;;13.38;12.10;;;;;;;21.69;69.25;100411.94;124843;1093;115982;-79
2021/06/20 03:47:39;;;;;;;14.45;12.60;;;;;;;21.72;69.35;100406.28;124922;1093;103179;-79
2021/06/20 03:50:09;;;;;;;16.18;12.25;;;;;;;21.71;69.06;100399.12;125329;1093;116143;-82
2021/06/20 03:52:37;;;;;;;12.45;11.15;;;;;;;21.76;68.71;100401.51;124777;1093;103693;-78
2021/06/20 03:55:18;;;;;;;12.88;11.63;;;;;;;21.79;68.75;100402.16;124956;1093;116225;-83
2021/06/20 03:58:01;;;;;;;12.53;11.33;;;;;;;21.81;68.59;100399.33;124680;1094;103182;-81
2021/06/20 04:00:29;;;;;;;13.35;12.00;;;;;;;21.84;68.46;100394.53;124765;1094;103073;-83
2021/06/20 04:03:10;;;;;;;12.63;11.35;;;;;;;21.87;68.27;100394.32;124582;1095;115368;-80
2021/06/20 04:05:37;;;;;;;10.73;9.83;;;;;;;21.91;67.95;100392.22;124798;1095;102933;-79
2021/06/20 04:08:06;;;;;;;12.10;10.75;;;;;;;21.93;67.64;100400.27;124786;1096;114435;-80
2021/06/20 04:10:34;;;;;;;11.75;10.53;;;;;;;21.97;67.24;100405.34;124647;1096;103261;-80
2021/06/20 04:13:02;;;;;;;12.33;11.17;;;;;;;21.98;67.34;100392.64;124348;1095;103008;-78
2021/06/20 04:15:43;;;;;;;11.18;9.93;;;;;;;22.04;66.65;100405.75;124419;1096;114765;-79
2021/06/20 04:18:10;;;;;;;11.18;10.08;;;;;;;22.15;66.67;100405.83;124582;1095;103013;-81
2021/06/20 04:20:52;;;;;;;12.75;10.15;;;;;;;22.29;66.50;100398.49;127474;1096;115389;-79
2021/06/20 04:23:20;;;;;;;10.70;9.70;;;;;;;22.37;65.85;100406.95;127591;1096;100983;-79
2021/06/20 04:25:47;;;;;;;11.43;10.27;;;;;;;22.38;65.43;100405.97;127432;1096;115607;-81
2021/06/20 04:28:21;;;;;;;10.50;8.70;;;;;;;22.47;65.29;100412.53;124743;1095;102860;-80
2021/06/20 04:30:54;;;;;;;9.88;8.88;;;;;;;22.53;64.97;100414.78;127346;1096;100974;-79
2021/06/20 04:33:22;;;;;;;10.45;9.43;;;;;;;22.51;64.82;100414.02;127478;1095;115361;-78
2021/06/20 04:35:52;;;;;;;11.13;8.83;;;;;;;22.50;64.98;100417.74;127520;1096;101831;-79
2021/06/20 04:38:20;;;;;;;11.35;9.10;;;;;;;22.50;65.49;100413.17;126728;1096;117247;-82
2021/06/20 04:40:49;;;;;;;9.48;8.58;;;;;;;22.64;65.33;100405.81;124667;1093;103145;-82
2021/06/20 04:46:29;;;;;;;10.23;9.28;;;;;;;22.77;63.89;100422.88;124780;1093;115995;-80
2021/06/20 04:48:58;;;;;;;10.53;9.53;;;;;;;22.86;64.06;100405.88;124744;1093;102930;-79
2021/06/20 04:51:28;;;;;;;8.63;7.93;;;;;;;22.87;63.89;100409.45;125113;1092;115767;-81
2021/06/20 04:53:55;;;;;;;11.23;8.83;;;;;;;22.93;64.37;100403.55;124504;1092;103598;-79
2021/06/20 04:56:23;;;;;;;10.08;9.08;;;;;;;23.04;64.19;100400.87;124297;1092;116031;-80
2021/06/20 04:58:50;;;;;;;8.15;7.33;;;;;;;23.04;63.49;100398.16;124964;1093;103238;-81
2021/06/20 05:01:18;;;;;;;11.90;9.93;;;;;;;23.02;63.37;100404.69;124691;1092;103585;-79
2021/06/20 05:03:45;;;;;;;8.90;7.95;;;;;;;23.02;64.39;100402.83;124891;1093;114916;-79
2021/06/20 05:06:13;;;;;;;9.38;8.35;;;;;;;22.99;63.03;100403.08;124987;1092;103764;-80
2021/06/20 05:08:40;;;;;;;9.17;8.27;;;;;;;22.96;62.89;100413.30;124611;1093;117657;-80
2021/06/20 05:11:21;;;;;;;9.57;8.50;;;;;;;23.00;63.68;100409.36;124975;1093;103498;-80
2021/06/20 05:13:49;;;;;;;9.60;8.20;;;;;;;23.08;63.13;100406.05;124615;1093;114427;-79
2021/06/20 05:16:21;;;;;;;8.48;7.68;;;;;;;23.07;63.56;100388.86;125050;1092;103101;-78
2021/06/20 05:19:04;;;;;;;8.83;8.05;;;;;;;23.11;62.38;100384.95;125826;1096;103379;-80
2021/06/20 05:21:34;;;;;;;8.10;7.25;;;;;;;23.16;62.26;100388.16;124699;1096;114565;-81
2021/06/20 05:24:03;;;;;;;7.20;6.60;;;;;;;23.17;61.03;100387.19;127621;1096;101061;-79
2021/06/20 05:26:31;;;;;;;9.63;8.18;;;;;;;23.25;61.86;100381.14;126692;1096;114188;-79
2021/06/20 05:29:00;;;;;;;8.77;7.97;;;;;;;23.31;61.48;100379.78;124348;1095;103182;-79
2021/06/20 05:31:27;;;;;;;8.27;7.57;;;;;;;23.33;61.68;100380.53;124469;1096;103076;-81
2021/06/20 05:33:55;;;;;;;9.77;8.83;;;;;;;23.35;61.72;100371.27;124375;1096;115183;-78
2021/06/20 05:36:22;;;;;;;8.50;7.70;;;;;;;23.46;61.81;100380.39;124594;1095;103138;-79
2021/06/20 05:38:50;;;;;;;12.43;8.13;;;;;;;23.60;60.61;100379.28;124587;1094;116005;-79
2021/06/20 05:41:17;;;;;;;20.33;8.77;;;;;;;23.70;60.12;100375.69;124638;1095;102990;-79
2021/06/20 05:43:44;;;;;;;10.33;7.80;;;;;;;23.74;59.44;100381.74;124508;1096;114715;-79
2021/06/20 05:46:12;;;;;;;7.03;6.43;;;;;;;23.78;58.79;100388.66;124629;1096;103197;-79
2021/06/20 05:48:39;;;;;;;7.20;6.60;;;;;;;23.78;58.22;100394.09;124517;1095;103144;-79
2021/06/20 05:51:07;;;;;;;6.65;6.15;;;;;;;23.79;58.79;100400.38;124350;1096;116033;-79
2021/06/20 05:53:34;;;;;;;7.23;6.53;;;;;;;23.83;57.93;100394.58;124234;1096;103189;-78
2021/06/20 05:56:02;;;;;;;7.58;6.83;;;;;;;23.89;58.54;100401.39;124092;1093;114377;-79
2021/06/20 05:58:29;;;;;;;7.10;6.30;;;;;;;23.97;58.23;100381.73;124540;1093;102979;-77
2021/06/20 06:00:58;;;;;;;6.95;6.28;;;;;;;24.07;58.08;100379.09;124511;1093;102995;-79
2021/06/20 06:03:25;;;;;;;6.70;6.00;;;;;;;24.13;57.48;100379.44;124680;1093;114565;-81
2021/06/20 06:05:53;;;;;;;10.10;6.37;;;;;;;24.15;56.35;100380.19;125034;1093;103066;-79
2021/06/20 06:08:20;;;;;;;7.23;5.93;;;;;;;24.14;57.09;100383.90;124940;1092;115428;-81
2021/06/20 06:10:47;;;;;;;6.50;5.90;;;;;;;24.20;57.18;100379.78;124862;1093;103620;-80
2021/06/20 06:13:15;;;;;;;5.43;4.93;;;;;;;24.26;56.27;100382.00;124936;1093;103488;-79
2021/06/20 06:15:42;;;;;;;6.48;5.88;;;;;;;24.30;56.35;100382.59;124731;1093;114380;-81
2021/06/20 06:18:23;;;;;;;6.55;5.95;;;;;;;24.38;56.26;100394.56;124699;1093;102902;-80
2021/06/20 06:20:50;;;;;;;6.85;6.25;;;;;;;24.48;55.99;100386.47;125029;1093;114402;-78
2021/06/20 06:23:18;;;;;;;6.40;5.80;;;;;;;24.57;56.04;100389.42;124852;1093;103598;-79
2021/06/20 06:25:45;;;;;;;7.63;5.83;;;;;;;24.66;55.74;100391.39;124734;1092;114514;-80
2021/06/20 06:28:13;;;;;;;7.27;5.97;;;;;;;24.73;55.42;100395.30;124510;1092;103937;-79
2021/06/20 06:30:40;;;;;;;6.90;6.30;;;;;;;24.74;55.01;100401.60;124910;1093;103020;-76
2021/06/20 06:33:08;;;;;;;7.23;6.63;;;;;;;24.79;54.87;100410.24;124828;1092;113740;-79
2021/06/20 06:35:35;;;;;;;6.50;5.70;;;;;;;24.86;55.32;100401.41;124872;1092;103002;-80
2021/06/20 06:38:03;;;;;;;7.87;6.07;;;;;;;24.94;54.11;100406.20;124781;1093;114574;-83
2021/06/20 06:40:31;;;;;;;6.17;5.53;;;;;;;24.94;53.78;100395.30;124765;1093;103067;-82
2021/06/20 06:42:59;;;;;;;7.43;5.70;;;;;;;25.00;53.99;100402.07;124624;1093;103191;-79
2021/06/20 06:45:26;;;;;;;6.15;5.55;;;;;;;25.10;53.69;100402.12;124758;1093;114498;-80
2021/06/20 06:48:08;;;;;;;8.10;5.68;;;;;;;25.17;53.44;100400.59;124682;1093;103053;-79
2021/06/20 06:50:55;;;;;;;6.10;5.35;;;;;;;25.26;54.02;100397.06;124654;1093;114330;-81
2021/06/20 06:53:22;;;;;;;6.83;5.95;;;;;;;25.37;53.10;100404.31;124818;1093;103066;-79
2021/06/20 06:55:49;;;;;;;7.85;7.05;;;;;;;25.44;53.26;100401.91;124597;1093;114670;-81
2021/06/20 06:58:16;;;;;;;6.13;5.33;;;;;;;25.47;53.03;100402.50;124727;1093;102977;-78
2021/06/20 07:00:44;;;;;;;6.07;5.43;;;;;;;25.55;53.16;100401.80;124455;1093;102982;-78
2021/06/20 07:03:12;;;;;;;7.10;6.28;;;;;;;25.64;53.45;100405.57;124555;1092;115276;-76
2021/06/20 07:05:40;;;;;;;5.77;4.93;;;;;;;25.72;52.53;100404.89;124791;1093;103009;-78
2021/06/20 07:08:07;;;;;;;5.70;5.00;;;;;;;25.75;52.44;100404.59;124581;1093;115337;-80
2021/06/20 07:10:36;;;;;;;7.23;5.80;;;;;;;25.77;52.09;100394.42;124981;1093;103226;-79
2021/06/20 07:13:04;;;;;;;5.50;4.98;;;;;;;25.83;52.06;100392.00;124849;1093;102986;-80
2021/06/20 07:15:31;;;;;;;6.48;5.70;;;;;;;25.92;51.97;100395.73;124650;1092;114443;-79
2021/06/20 07:17:59;;;;;;;6.20;5.57;;;;;;;26.00;52.28;100395.04;124734;1092;102984;-80
2021/06/20 07:20:27;;;;;;;5.30;4.80;;;;;;;26.09;52.62;100388.77;124611;1093;116134;-79
2021/06/20 07:22:54;;;;;;;5.77;5.10;;;;;;;26.20;51.35;100383.20;124970;1093;102994;-77
2021/06/20 07:25:23;;;;;;;6.03;5.45;;;;;;;26.27;50.91;100379.88;124900;1092;102994;-76
2021/06/20 07:27:50;;;;;;;6.05;5.55;;;;;;;26.31;49.41;100379.46;124914;1093;114533;-77
2021/06/20 07:30:20;;;;;;;4.93;4.50;;;;;;;26.35;49.81;100383.63;124839;1092;102995;-77
2021/06/20 07:32:54;;;;;;;6.28;4.68;;;;;;;26.38;50.51;100377.02;127826;1092;116168;-77
2021/06/20 07:35:21;;;;;;;9.13;4.77;;;;;;;26.48;50.39;100383.31;127963;1093;101744;-77
2021/06/20 07:38:03;;;;;;;5.37;4.40;;;;;;;26.63;49.93;100382.88;127801;1093;114794;-78
2021/06/20 07:40:30;;;;;;;5.57;5.07;;;;;;;26.70;49.33;100381.31;127844;1093;101531;-80
2021/06/20 07:42:58;;;;;;;15.33;12.08;;;;;;;26.79;49.06;100387.78;124700;1093;103006;-78
2021/06/20 07:45:40;;;;;;;6.10;4.78;;;;;;;26.85;48.64;100374.39;124570;1093;114957;-78
2021/06/20 07:48:11;;;;;;;4.37;4.07;;;;;;;26.98;49.23;100378.70;125990;1092;103019;-77
2021/06/20 07:50:39;;;;;;;5.65;5.15;;;;;;;27.09;48.64;100381.25;124626;1092;116116;-78
2021/06/20 07:53:09;;;;;;;7.15;5.20;;;;;;;27.18;49.18;100377.63;125872;1091;102898;-79
2021/06/20 07:55:36;;;;;;;7.87;7.07;;;;;;;27.26;47.91;100382.35;124879;1093;103438;-78
2021/06/20 07:58:04;;;;;;;5.03;4.57;;;;;;;27.28;47.56;100391.25;124659;1091;114684;-82
2021/06/20 08:00:40;;;;;;;7.03;5.00;;;;;;;27.33;47.85;100371.67;127579;1092;100959;-78
2021/06/20 08:03:10;;;;;;;4.18;3.78;;;;;;;27.43;45.34;100377.13;127779;1093;116060;-78
2021/06/20 08:05:39;;;;;;;4.43;3.97;;;;;;;27.48;45.45;100381.13;127886;1093;101925;-77
2021/06/20 08:08:11;;;;;;;6.75;4.35;;;;;;;27.50;44.62;100383.73;127531;1092;114536;-77
2021/06/20 08:10:40;;;;;;;3.90;3.50;;;;;;;27.58;45.70;100378.36;127698;1093;101036;-79
2021/06/20 08:13:08;;;;;;;4.47;4.07;;;;;;;27.58;44.53;100375.63;127633;1093;101257;-76
2021/06/20 08:15:36;;;;;;;7.40;4.17;;;;;;;27.60;44.13;100378.20;127246;1092;115512;-77
2021/06/20 08:18:05;;;;;;;8.53;4.10;;;;;;;27.66;43.91;100377.61;124592;1093;103367;-83
2021/06/20 08:20:37;;;;;;;6.27;4.53;;;;;;;27.70;43.37;100362.61;127551;1093;114706;-79
2021/06/20 08:23:05;;;;;;;5.00;4.55;;;;;;;27.77;43.21;100366.44;125004;1093;103124;-81
2021/06/20 08:25:47;;;;;;;6.43;4.85;;;;;;;27.90;43.65;100373.41;124664;1093;116173;-79
2021/06/20 08:28:14;;;;;;;4.20;3.73;;;;;;;27.96;43.36;100373.66;124758;1093;103254;-79
2021/06/20 08:30:42;;;;;;;3.53;3.23;;;;;;;28.05;42.40;100365.59;124591;1093;103098;-77
2021/06/20 08:33:10;;;;;;;3.83;3.53;;;;;;;28.19;43.69;100378.71;124715;1093;115633;-78
2021/06/20 08:35:38;;;;;;;4.07;3.77;;;;;;;28.34;42.98;100381.79;124787;1092;103546;-77
2021/06/20 08:38:06;;;;;;;3.60;3.30;;;;;;;28.31;41.35;100388.44;124765;1093;114932;-81
2021/06/20 08:40:47;;;;;;;4.90;3.87;;;;;;;28.36;42.86;100377.88;124507;1093;103566;-77
2021/06/20 08:43:27;;;;;;;4.95;4.55;;;;;;;28.51;41.96;100385.52;124617;1093;103103;-80
2021/06/20 08:45:56;;;;;;;5.13;3.57;;;;;;;28.57;41.86;100376.67;124246;1093;114749;-80
2021/06/20 08:48:38;;;;;;;9.30;8.40;;;;;;;28.64;41.95;100380.52;124361;1092;103083;-78
2021/06/20 08:51:06;;;;;;;7.53;4.48;;;;;;;28.82;41.48;100376.92;124331;1093;114764;-78
2021/06/20 08:53:40;;;;;;;4.20;3.83;;;;;;;28.96;42.08;100380.94;124873;1093;102928;-77
2021/06/20 08:56:22;;;;;;;5.33;4.45;;;;;;;29.23;43.88;100381.79;124285;1093;116156;-77
2021/06/20 08:58:49;;;;;;;4.88;3.80;;;;;;;29.40;41.49;100378.14;124784;1092;103030;-78
2021/06/20 09:01:17;;;;;;;6.07;4.07;;;;;;;29.44;41.69;100376.78;125280;1093;103150;-77
2021/06/20 09:03:45;;;;;;;5.03;4.53;;;;;;;29.63;42.38;100375.69;124150;1093;115530;-78
2021/06/20 09:06:18;;;;;;;5.30;4.57;;;;;;;29.67;42.34;100373.45;124630;1093;103658;-79
2021/06/20 09:08:47;;;;;;;5.48;4.63;;;;;;;29.78;41.76;100366.82;124810;1093;115798;-79
2021/06/20 09:11:32;;;;;;;3.80;3.40;;;;;;;29.79;39.40;100368.52;124577;1093;103121;-81
2021/06/20 09:14:08;;;;;;;3.93;3.63;;;;;;;29.88;40.29;100369.45;124694;1093;116500;-76
2021/06/20 09:16:45;;;;;;;4.23;3.83;;;;;;;30.02;39.60;100368.80;124734;1093;103495;-77
2021/06/20 09:19:15;;;;;;;6.37;4.20;;;;;;;30.09;39.85;100358.00;127467;1092;103001;-79
2021/06/20 09:21:56;;;;;;;4.85;4.40;;;;;;;30.19;39.66;100353.22;124685;1092;116345;-78
2021/06/20 09:24:40;;;;;;;5.73;4.63;;;;;;;30.30;39.05;100363.01;124464;1096;103228;-78
2021/06/20 09:27:07;;;;;;;6.10;5.20;;;;;;;30.56;39.66;100370.25;124392;1095;115244;-78
2021/06/20 09:29:49;;;;;;;4.43;4.03;;;;;;;30.91;38.08;100366.28;127187;1098;100928;-78
2021/06/20 09:32:18;;;;;;;3.77;3.30;;;;;;;31.60;36.40;100365.77;127032;1100;116408;-78
2021/06/20 09:34:48;;;;;;;9.37;8.47;;;;;;;32.49;34.13;100367.31;124128;1100;103146;-83
2021/06/20 09:37:20;;;;;;;3.70;3.40;;;;;;;33.23;32.93;100360.23;124729;1099;103250;-80
2021/06/20 09:39:49;;;;;;;4.55;3.58;;;;;;;34.23;33.44;100364.30;123873;1099;114187;-82
2021/06/20 09:42:17;;;;;;;4.13;3.10;;;;;;;35.14;31.30;100360.00;123866;1100;103690;-78
2021/06/20 09:44:52;;;;;;;2.73;2.20;;;;;;;35.78;27.95;100356.08;123669;1099;114621;-78
2021/06/20 09:47:22;;;;;;;2.90;2.10;;;;;;;36.06;26.56;100366.22;124001;1096;103086;-84
2021/06/20 09:49:52;;;;;;;2.40;2.20;;;;;;;36.22;26.70;100358.58;124407;1093;114431;-80
2021/06/20 09:52:30;;;;;;;3.10;2.25;;;;;;;36.79;27.55;100342.42;125379;1093;103087;-83
2021/06/20 09:55:00;;;;;;;3.28;2.03;;;;;;;37.43;24.95;100342.73;125435;1093;102922;-78
2021/06/20 09:57:28;;;;;;;2.30;1.90;;;;;;;37.90;25.64;100332.29;124488;1093;116008;-77
2021/06/20 09:59:57;;;;;;;2.60;2.10;;;;;;;38.11;23.35;100339.44;124544;1093;102936;-82
2021/06/20 10:02:27;;;;;;;3.05;2.70;;;;;;;38.32;24.47;100333.76;124485;1093;114676;-79
2021/06/20 10:04:55;;;;;;;2.48;1.75;;;;;;;38.49;22.59;100332.11;127921;1092;101587;-78
2021/06/20 10:07:26;;;;;;;2.10;1.90;;;;;;;38.55;23.14;100339.56;127908;1093;101622;-79
2021/06/20 10:09:57;;;;;;;2.50;1.87;;;;;;;38.69;23.03;100328.31;127591;1092;115751;-77
2021/06/20 10:12:25;;;;;;;2.63;2.23;;;;;;;39.05;23.06;100309.98;126749;1093;102991;-79
2021/06/20 10:14:54;;;;;;;2.53;2.33;;;;;;;39.61;22.13;100320.05;124406;1093;115159;-79
2021/06/20 10:17:27;;;;;;;2.23;2.03;;;;;;;39.04;23.16;100314.72;124658;1093;103202;-80
2021/06/20 10:19:57;;;;;;;2.85;2.38;;;;;;;38.93;22.56;100305.17;124648;1093;114730;-83
2021/06/20 10:22:40;;;;;;;2.98;2.65;;;;;;;39.24;23.59;100313.64;124564;1093;102933;-80
2021/06/20 10:25:10;;;;;;;2.37;2.13;;;;;;;39.69;22.36;100310.52;124797;1093;103050;-82
2021/06/20 10:27:41;;;;;;;2.60;2.40;;;;;;;39.91;22.18;100301.63;124633;1093;114577;-81
2021/06/20 10:30:24;;;;;;;3.87;2.87;;;;;;;40.24;22.68;100301.16;124669;1093;103133;-81
2021/06/20 10:33:01;;;;;;;2.50;2.20;;;;;;;40.51;22.14;100299.88;124644;1093;115275;-79
2021/06/20 10:35:29;;;;;;;3.67;2.27;;;;;;;40.82;22.08;100287.50;124927;1092;103010;-79
2021/06/20 10:37:57;;;;;;;3.73;2.10;;;;;;;40.93;21.83;100283.83;124735;1092;114869;-79
2021/06/20 10:40:36;;;;;;;4.08;1.65;;;;;;;40.20;21.47;100277.63;124677;1093;103102;-81
2021/06/20 10:43:19;;;;;;;4.43;2.63;;;;;;;40.05;22.04;100275.23;125493;1092;102986;-79
2021/06/20 10:45:47;;;;;;;3.53;2.03;;;;;;;40.54;22.52;100275.13;124579;1093;114685;-81
2021/06/20 10:48:18;;;;;;;3.40;2.83;;;;;;;40.76;22.51;100266.99;124813;1092;103103;-81
2021/06/20 10:50:51;;;;;;;9.68;8.78;;;;;;;41.02;21.67;100261.99;127579;1093;115626;-77
2021/06/20 10:53:41;;;;;;;3.35;3.05;;;;;;;40.70;20.22;100262.38;127952;1093;100958;-79
2021/06/20 10:56:24;;;;;;;2.68;2.20;;;;;;;40.79;21.00;100263.70;127742;1093;114904;-80
2021/06/20 10:58:53;;;;;;;2.70;2.20;;;;;;;41.02;20.39;100259.20;127434;1093;102931;-80
2021/06/20 11:01:23;;;;;;;4.20;2.60;;;;;;;40.67;20.82;100268.45;124403;1093;103158;-77
2021/06/20 11:03:53;;;;;;;2.30;1.40;;;;;;;39.89;20.65;100270.36;124147;1093;114595;-79
2021/06/20 11:06:22;;;;;;;1.88;1.68;;;;;;;38.44;22.25;100265.16;124844;1093;103397;-79
2021/06/20 11:12:02;;;;;;;2.18;2.00;;;;;;;36.63;24.89;100266.02;125337;1097;103152;-81
2021/06/20 11:14:44;;;;;;;4.37;2.33;;;;;;;36.01;26.86;100263.42;125104;1097;115825;-80
2021/06/20 11:17:34;;;;;;;4.45;3.10;;;;;;;35.70;27.13;100253.75;127172;1096;101096;-77
2021/06/20 11:20:13;;;;;;;3.35;3.00;;;;;;;35.22;27.36;100253.78;124406;1095;114824;-79
2021/06/20 11:22:41;;;;;;;2.63;2.10;;;;;;;34.73;27.69;100241.78;124669;1095;103143;-80
2021/06/20 11:25:09;;;;;;;3.50;2.60;;;;;;;34.43;29.26;100236.45;124052;1096;103806;-82